Terminal Aerodrome Forecast
Issued by NWS

Home | Current Version | Previous Version | Text Only | Print | Product List | Glossary On
Versions: 1 2 3 4 5 6 7 8 9 10 11 12 13
198
FTPA31 PHFO 262341
TAFHMK
TAF
PHMK 262341Z 2700/2724 03006KT P6SM SCT030 SCT250
     FM270500 04005KT P6SM FEW025 SCT250
     FM272100 08009KT P6SM FEW030 BKN045=

USA.gov is the U.S. government's official web portal to all federal, state and local government web resources and services.